Time;durP1;ratioP1;P1;durP2;ratioP2;P2;SDS_P1;SDS_P2;PMS_P1;PMS_P2;Temp;Humidity;BMP_temperature;BMP_pressure;BME280_temperature;BME280_humidity;BME280_pressure;Samples;Min_cycle;Max_cycle;Signal;HPM_P1;HPM_P2
2022/04/01 00:01:10;;;;;;;1.58;1.48;;;5.60;80.80;;;;;;4974605;28;20023;-67
2022/04/01 00:03:36;;;;;;;2.15;1.60;;;5.60;80.80;;;;;;4974499;28;20035;-67
2022/04/01 00:06:01;;;;;;;1.58;1.48;;;5.60;81.00;;;;;;4962142;28;20026;-67
2022/04/01 00:08:27;;;;;;;1.55;1.33;;;5.50;80.90;;;;;;4972344;28;20064;-66
2022/04/01 00:10:53;;;;;;;1.50;1.40;;;5.50;81.10;;;;;;4957552;28;20056;-67
2022/04/01 00:13:19;;;;;;;1.65;1.55;;;5.50;81.40;;;;;;4976664;28;20038;-66
2022/04/01 00:15:45;;;;;;;1.83;1.73;;;5.50;81.40;;;;;;4975673;28;20043;-67
2022/04/01 00:18:11;;;;;;;1.70;1.60;;;5.40;81.60;;;;;;4974528;28;20062;-67
2022/04/01 00:20:37;;;;;;;2.20;2.00;;;5.40;81.80;;;;;;4971195;28;20125;-66
2022/04/01 00:23:03;;;;;;;1.80;1.70;;;5.40;82.00;;;;;;4975799;28;20110;-66
2022/04/01 00:25:29;;;;;;;1.85;1.75;;;5.40;82.00;;;;;;4974978;28;20034;-66
2022/04/01 00:27:54;;;;;;;1.90;1.80;;;5.40;82.10;;;;;;4973201;28;20572;-66
2022/04/01 00:30:20;;;;;;;1.65;1.55;;;5.40;82.10;;;;;;4974366;28;20044;-66
2022/04/01 00:32:46;;;;;;;1.73;1.63;;;5.40;82.10;;;;;;4973876;28;20117;-66
2022/04/01 00:35:12;;;;;;;1.88;1.77;;;5.40;82.10;;;;;;4976562;28;20054;-66
2022/04/01 00:37:38;;;;;;;1.90;1.80;;;5.40;82.10;;;;;;4974111;28;20555;-66
2022/04/01 00:40:04;;;;;;;1.98;1.88;;;5.40;82.30;;;;;;4975581;28;20498;-66
2022/04/01 00:42:30;;;;;;;1.90;1.80;;;5.40;82.50;;;;;;4974588;28;20042;-66
2022/04/01 00:44:58;;;;;;;1.60;1.50;;;5.40;82.50;;;;;;4975049;28;20101;-66
2022/04/01 00:47:24;;;;;;;1.88;1.77;;;5.40;82.40;;;;;;4973434;28;20031;-66
2022/04/01 00:49:50;;;;;;;1.90;1.80;;;5.40;82.40;;;;;;4973854;28;22353;-66
2022/04/01 00:52:19;;;;;;;1.80;1.70;;;5.40;82.30;;;;;;4961083;28;20399;-66
2022/04/01 00:54:45;;;;;;;2.30;2.10;;;5.40;82.40;;;;;;4976944;28;20038;-66
2022/04/01 00:57:13;;;;;;;2.38;2.10;;;5.40;82.30;;;;;;4976286;28;20398;-66
2022/04/01 00:59:39;;;;;;;2.10;2.00;;;5.40;82.30;;;;;;4977706;28;20039;-66
2022/04/01 01:02:05;;;;;;;2.40;2.08;;;5.40;82.20;;;;;;4980138;28;20509;-66
2022/04/01 01:04:31;;;;;;;2.30;2.10;;;5.40;82.10;;;;;;4958071;28;20070;-66
2022/04/01 01:07:00;;;;;;;2.00;1.80;;;5.40;82.20;;;;;;4971955;28;20121;-66
2022/04/01 01:09:25;;;;;;;2.45;2.25;;;5.40;82.10;;;;;;4957321;28;20049;-66
2022/04/01 01:11:52;;;;;;;2.58;2.38;;;5.40;82.10;;;;;;4969773;28;20122;-67
2022/04/01 01:14:31;;;;;;;2.25;2.05;;;5.40;82.30;;;;;;4978076;28;20461;-66
2022/04/01 01:16:58;;;;;;;2.67;2.28;;;5.40;82.60;;;;;;4975749;28;20115;-66
2022/04/01 01:19:25;;;;;;;3.33;2.53;;;5.40;82.50;;;;;;4968456;28;20755;-67
2022/04/01 01:21:53;;;;;;;2.42;2.22;;;5.40;82.60;;;;;;4956715;28;20109;-66
2022/04/01 01:24:32;;;;;;;2.88;2.45;;;5.30;82.50;;;;;;4974503;28;20039;-66
2022/04/01 01:26:59;;;;;;;2.78;2.58;;;5.40;82.50;;;;;;4973457;28;20035;-66
2022/04/01 01:29:27;;;;;;;2.58;2.38;;;5.30;82.20;;;;;;4956341;28;20518;-67
2022/04/01 01:31:55;;;;;;;2.63;2.42;;;5.40;82.30;;;;;;4969761;28;20050;-66
2022/04/01 01:34:22;;;;;;;2.60;2.40;;;5.30;82.30;;;;;;4977141;28;20046;-66
2022/04/01 01:36:49;;;;;;;2.60;2.40;;;5.40;82.30;;;;;;4956549;28;20390;-66
2022/04/01 01:39:15;;;;;;;3.20;2.60;;;5.30;82.30;;;;;;4965908;28;20421;-67
2022/04/01 01:41:46;;;;;;;3.03;2.72;;;5.40;82.50;;;;;;4977164;28;20042;-66
2022/04/01 01:44:12;;;;;;;3.25;2.63;;;5.40;82.50;;;;;;4977872;28;20039;-67
2022/04/01 01:46:38;;;;;;;3.17;2.78;;;5.30;82.30;;;;;;4976317;28;20034;-66
2022/04/01 01:49:05;;;;;;;2.67;2.47;;;5.30;82.50;;;;;;4973181;28;20093;-66
2022/04/01 01:56:59;;;;;;;2.22;2.03;;;5.40;82.70;;;;;;4977734;28;20785;-66
2022/04/01 01:59:26;;;;;;;2.60;2.40;;;5.40;82.70;;;;;;4976924;28;20042;-66
2022/04/01 02:01:52;;;;;;;2.45;2.25;;;5.40;82.60;;;;;;4976250;28;20041;-66
2022/04/01 02:04:20;;;;;;;2.40;2.13;;;5.40;82.40;;;;;;4975859;28;20413;-64
2022/04/01 02:06:46;;;;;;;2.63;2.42;;;5.40;82.40;;;;;;4975578;28;20039;-66
2022/04/01 02:09:11;;;;;;;2.28;2.05;;;5.30;82.30;;;;;;4977419;28;20042;-66
2022/04/01 02:11:37;;;;;;;2.15;1.88;;;5.30;82.40;;;;;;4975751;28;20034;-66
2022/04/01 02:14:04;;;;;;;2.45;2.10;;;5.30;82.50;;;;;;4979336;28;20121;-66
2022/04/01 02:16:30;;;;;;;2.30;2.10;;;5.20;82.50;;;;;;4975290;28;20041;-66
2022/04/01 02:18:56;;;;;;;2.78;2.13;;;5.20;82.80;;;;;;4977117;28;20038;-66
2022/04/01 02:21:21;;;;;;;2.53;2.10;;;5.20;82.50;;;;;;4976758;28;20066;-67
2022/04/01 02:23:48;;;;;;;1.83;1.63;;;5.20;82.50;;;;;;4966285;28;20546;-66
2022/04/01 02:26:14;;;;;;;2.13;1.90;;;5.20;82.50;;;;;;4971498;28;20078;-66
2022/04/01 02:28:42;;;;;;;2.03;1.83;;;5.10;82.40;;;;;;4958342;28;20531;-66
2022/04/01 02:31:08;;;;;;;2.55;1.90;;;5.10;82.50;;;;;;4963768;28;20532;-67
2022/04/01 02:33:35;;;;;;;2.10;1.90;;;5.10;82.60;;;;;;4976952;28;20043;-66
2022/04/01 02:36:10;;;;;;;2.25;2.05;;;5.10;82.80;;;;;;4961370;28;20041;-66
2022/04/01 02:38:37;;;;;;;2.08;1.88;;;5.10;82.90;;;;;;4957715;28;20137;-66
2022/04/01 02:41:02;;;;;;;2.35;2.00;;;5.10;82.80;;;;;;4976652;28;20062;-67
2022/04/01 02:43:28;;;;;;;1.98;1.75;;;5.10;82.70;;;;;;4975418;28;20125;-66
2022/04/01 02:45:54;;;;;;;2.17;1.98;;;5.00;82.80;;;;;;4975797;28;20121;-66
2022/04/01 02:48:20;;;;;;;2.58;2.10;;;5.10;82.80;;;;;;4974988;28;20062;-66
2022/04/01 02:50:47;;;;;;;2.60;2.40;;;5.00;82.60;;;;;;4983776;28;20634;-66
2022/04/01 02:53:16;;;;;;;2.42;2.20;;;5.00;82.40;;;;;;4961377;28;20039;-66
2022/04/01 02:55:42;;;;;;;2.75;2.15;;;5.00;82.30;;;;;;4961562;28;20437;-66
2022/04/01 02:58:09;;;;;;;2.25;2.05;;;4.90;82.10;;;;;;4957733;28;20050;-67
2022/04/01 03:00:37;;;;;;;2.05;1.88;;;5.00;82.10;;;;;;4973624;28;20030;-65
2022/04/01 03:03:06;;;;;;;3.38;2.20;;;4.90;82.20;;;;;;4971002;28;20093;-66
2022/04/01 03:05:36;;;;;;;4.15;3.28;;;4.80;82.10;;;;;;4953144;28;20475;-66
2022/04/01 03:08:06;;;;;;;3.33;2.97;;;4.80;82.10;;;;;;4969437;28;20708;-66
2022/04/01 03:10:37;;;;;;;2.20;2.00;;;4.80;82.10;;;;;;4975144;28;20034;-66
2022/04/01 03:13:04;;;;;;;2.08;1.90;;;4.80;82.10;;;;;;4959548;28;20031;-65
2022/04/01 03:15:30;;;;;;;1.83;1.73;;;4.80;82.00;;;;;;4969690;28;20098;-66
2022/04/01 03:17:56;;;;;;;1.95;1.75;;;4.70;82.00;;;;;;4960672;28;20035;-67
2022/04/01 03:20:23;;;;;;;1.75;1.65;;;4.80;82.10;;;;;;4975768;28;20038;-66
2022/04/01 03:22:49;;;;;;;2.95;2.15;;;4.70;82.00;;;;;;4975956;28;20657;-66
2022/04/01 03:25:18;;;;;;;2.20;1.98;;;4.70;82.10;;;;;;4960504;28;20413;-66
2022/04/01 03:27:45;;;;;;;2.25;2.05;;;4.80;82.80;;;;;;4969403;28;20141;-66
2022/04/01 03:30:13;;;;;;;1.90;1.70;;;4.80;82.10;;;;;;4975084;28;20034;-66
2022/04/01 03:32:40;;;;;;;2.20;1.95;;;4.80;82.00;;;;;;4957073;28;20033;-66
2022/04/01 03:35:15;;;;;;;2.00;1.70;;;4.80;82.00;;;;;;4960939;28;20038;-66
2022/04/01 03:37:41;;;;;;;1.58;1.48;;;4.90;82.00;;;;;;4976388;28;20033;-66
2022/04/01 03:40:08;;;;;;;1.67;1.50;;;4.90;81.80;;;;;;4962743;28;20042;-66
2022/04/01 03:42:34;;;;;;;1.70;1.60;;;4.90;81.60;;;;;;4956684;28;20347;-66
2022/04/01 03:45:03;;;;;;;1.50;1.40;;;4.90;81.50;;;;;;4972213;28;20039;-67
2022/04/01 03:47:48;;;;;;;1.80;1.65;;;4.90;81.50;;;;;;4967072;28;20509;-66
2022/04/01 03:50:16;;;;;;;1.50;1.40;;;4.90;81.80;;;;;;4975826;28;20089;-66
2022/04/01 03:52:46;;;;;;;1.60;1.38;;;4.90;81.50;;;;;;4958100;28;20252;-66
2022/04/01 03:55:12;;;;;;;2.00;1.80;;;4.90;81.70;;;;;;4969203;28;20154;-67
2022/04/01 03:57:39;;;;;;;1.73;1.58;;;4.90;81.70;;;;;;4964730;28;20046;-66
2022/04/01 04:00:12;;;;;;;2.60;1.85;;;4.90;81.90;;;;;;4960721;28;20041;-66
2022/04/01 04:02:42;;;;;;;1.92;1.73;;;5.00;81.90;;;;;;4957305;28;20112;-66
2022/04/01 04:05:09;;;;;;;1.98;1.70;;;5.00;81.80;;;;;;4975736;28;20478;-66
2022/04/01 04:07:36;;;;;;;2.53;2.20;;;5.10;81.80;;;;;;4977281;28;20031;-66
2022/04/01 04:10:04;;;;;;;2.65;1.80;;;5.10;81.70;;;;;;4975800;28;20042;-65
2022/04/01 04:12:30;;;;;;;2.15;1.90;;;5.10;81.50;;;;;;4973236;28;20038;-66
2022/04/01 04:14:57;;;;;;;1.75;1.65;;;5.20;81.40;;;;;;4973141;28;20118;-66
2022/04/01 04:17:44;;;;;;;2.22;2.03;;;5.20;81.30;;;;;;4975857;28;20034;-66
2022/04/01 04:20:13;;;;;;;2.40;2.20;;;5.20;81.50;;;;;;4973885;28;20034;-66
2022/04/01 04:22:40;;;;;;;2.78;2.38;;;5.30;81.10;;;;;;4972184;28;20405;-66
2022/04/01 04:25:14;;;;;;;3.15;2.85;;;5.30;81.10;;;;;;4972543;28;20057;-67
2022/04/01 04:27:58;;;;;;;4.63;2.92;;;5.30;80.90;;;;;;4988661;28;20038;-66
2022/04/01 04:30:36;;;;;;;4.13;2.88;;;5.40;81.10;;;;;;4957492;28;20605;-66
2022/04/01 04:33:09;;;;;;;3.83;3.10;;;5.40;81.10;;;;;;4970128;28;20034;-66
2022/04/01 04:35:40;;;;;;;3.20;2.70;;;5.40;81.10;;;;;;4974830;28;20037;-66
2022/04/01 04:38:07;;;;;;;3.08;2.53;;;5.40;81.00;;;;;;4975754;28;20068;-66
2022/04/01 04:40:34;;;;;;;3.92;2.63;;;5.40;80.90;;;;;;4975450;28;20038;-66
2022/04/01 04:43:00;;;;;;;2.90;2.55;;;5.40;81.00;;;;;;4976773;28;20729;-65
2022/04/01 04:45:27;;;;;;;4.55;2.78;;;5.40;81.10;;;;;;4977273;28;20121;-65
2022/04/01 04:47:53;;;;;;;3.15;2.65;;;5.40;81.00;;;;;;4976497;28;20411;-65
2022/04/01 04:50:20;;;;;;;4.18;2.75;;;5.40;81.00;;;;;;4976056;28;20042;-65
2022/04/01 04:52:49;;;;;;;3.90;2.70;;;5.40;81.10;;;;;;4976019;28;20508;-66
2022/04/01 04:55:17;;;;;;;7.18;3.20;;;5.40;81.10;;;;;;4977561;28;20053;-66
2022/04/01 04:57:48;;;;;;;4.32;3.53;;;5.40;81.10;;;;;;4975482;28;20525;-66
2022/04/01 05:00:21;;;;;;;5.93;3.35;;;5.40;81.20;;;;;;4975568;28;20117;-65
2022/04/01 05:03:12;;;;;;;5.40;3.25;;;5.40;81.30;;;;;;4976637;28;20414;-66
2022/04/01 05:05:45;;;;;;;5.13;3.30;;;5.40;81.60;;;;;;4975667;28;20401;-66
2022/04/01 05:08:33;;;;;;;5.95;3.10;;;5.40;81.10;;;;;;4977077;28;20335;-66
2022/04/01 05:11:16;;;;;;;6.30;3.55;;;5.40;81.40;;;;;;4969162;28;20046;-66
2022/04/01 05:14:11;;;;;;;5.30;3.40;;;5.50;82.20;;;;;;4969880;28;20383;-66
2022/04/01 05:16:41;;;;;;;7.28;3.40;;;5.50;81.60;;;;;;4974131;28;20040;-66
2022/04/01 05:19:12;;;;;;;4.30;3.63;;;5.50;81.30;;;;;;4974475;28;20035;-66
2022/04/01 05:21:53;;;;;;;5.35;3.58;;;5.50;81.40;;;;;;4977180;28;20114;-65
2022/04/01 05:24:26;;;;;;;5.20;3.33;;;5.60;81.80;;;;;;4974765;28;20133;-66
2022/04/01 05:26:55;;;;;;;6.40;3.50;;;5.60;81.50;;;;;;4974345;28;20039;-66
2022/04/01 05:29:26;;;;;;;5.50;3.42;;;5.60;81.40;;;;;;4974273;28;20046;-65
2022/04/01 05:32:05;;;;;;;5.07;3.78;;;5.60;81.40;;;;;;4974761;28;20038;-65
2022/04/01 05:34:36;;;;;;;4.80;3.63;;;5.70;81.40;;;;;;4975580;28;20031;-66
2022/04/01 05:37:03;;;;;;;3.67;2.97;;;5.70;81.40;;;;;;4973354;28;20117;-66
2022/04/01 05:39:30;;;;;;;3.42;2.78;;;5.80;81.60;;;;;;4975358;28;20038;-66
2022/04/01 05:41:56;;;;;;;2.75;2.53;;;5.80;81.40;;;;;;4974695;28;20141;-66
2022/04/01 05:44:24;;;;;;;3.15;2.65;;;5.70;81.30;;;;;;4976102;28;20113;-66
2022/04/01 05:46:53;;;;;;;2.58;2.38;;;5.80;81.30;;;;;;4975475;28;20475;-66
2022/04/01 05:49:19;;;;;;;2.90;2.60;;;5.80;81.40;;;;;;4975354;28;20198;-66
2022/04/01 05:51:49;;;;;;;2.15;1.95;;;5.80;81.60;;;;;;4976328;28;20042;-65
2022/04/01 05:54:19;;;;;;;2.00;1.80;;;5.70;81.50;;;;;;4976636;28;20030;-65
2022/04/01 05:56:48;;;;;;;2.30;2.10;;;5.70;81.50;;;;;;4978788;28;20042;-66
2022/04/01 05:59:16;;;;;;;1.75;1.65;;;5.70;81.50;;;;;;4976802;28;20065;-66
2022/04/01 06:02:07;;;;;;;2.78;2.08;;;5.60;81.40;;;;;;4979317;28;20170;-65
2022/04/01 06:05:10;;;;;;;3.60;2.10;;;5.60;81.70;;;;;;4977316;28;20068;-67
2022/04/01 06:07:59;;;;;;;2.72;1.90;;;5.60;82.00;;;;;;4969070;28;20035;-67
2022/04/01 06:10:36;;;;;;;2.60;2.40;;;5.60;81.90;;;;;;4974515;28;20046;-67
2022/04/01 06:13:20;;;;;;;3.30;2.30;;;5.50;81.70;;;;;;4976835;28;20070;-66
2022/04/01 06:15:58;;;;;;;3.63;2.47;;;5.60;81.70;;;;;;4972168;28;20038;-66
2022/04/01 06:18:44;;;;;;;2.70;2.00;;;5.50;82.10;;;;;;4964033;28;20352;-67
2022/04/01 06:21:15;;;;;;;2.45;2.25;;;5.50;82.20;;;;;;4973278;28;20414;-66
2022/04/01 06:23:58;;;;;;;3.33;3.03;;;5.60;82.00;;;;;;4969841;28;20514;-66
2022/04/01 06:26:27;;;;;;;3.20;2.70;;;5.50;82.30;;;;;;4965985;28;20042;-67
2022/04/01 06:28:55;;;;;;;2.63;2.20;;;5.50;82.00;;;;;;4996065;28;20038;-67
2022/04/01 06:31:25;;;;;;;2.30;2.00;;;5.50;82.00;;;;;;4973214;28;20431;-67
2022/04/01 06:34:13;;;;;;;1.92;1.80;;;5.50;82.20;;;;;;4972214;28;20038;-67
2022/04/01 06:36:40;;;;;;;1.70;1.60;;;5.50;82.30;;;;;;4963044;28;20043;-66
2022/04/01 06:39:08;;;;;;;2.00;1.45;;;5.40;82.00;;;;;;4962600;28;20053;-67
2022/04/01 06:41:43;;;;;;;1.98;1.30;;;5.40;82.00;;;;;;4970022;28;20062;-66
2022/04/01 06:44:09;;;;;;;1.38;1.27;;;5.40;82.40;;;;;;4980373;28;20042;-67
2022/04/01 06:46:37;;;;;;;1.40;1.30;;;5.40;82.00;;;;;;4977525;28;20149;-66
2022/04/01 06:49:07;;;;;;;1.20;1.10;;;5.40;82.00;;;;;;4974170;28;20039;-67
2022/04/01 06:51:37;;;;;;;2.45;1.08;;;5.40;82.00;;;;;;4967616;28;20035;-66
2022/04/01 06:54:02;;;;;;;0.90;0.90;;;5.50;81.90;;;;;;4978591;28;20065;-67
2022/04/01 06:56:28;;;;;;;1.30;1.20;;;5.40;81.60;;;;;;4977161;28;20031;-67
2022/04/01 06:58:54;;;;;;;1.08;0.98;;;5.40;81.80;;;;;;4963565;28;20046;-66
2022/04/01 07:01:19;;;;;;;1.00;1.00;;;5.40;82.00;;;;;;4971232;28;20058;-66
2022/04/01 07:03:45;;;;;;;1.20;1.00;;;5.40;82.20;;;;;;4959895;28;20043;-66
2022/04/01 07:06:11;;;;;;;1.15;1.05;;;5.40;82.10;;;;;;4973796;28;20104;-67
2022/04/01 07:08:36;;;;;;;1.15;1.05;;;5.50;82.30;;;;;;4973638;28;20034;-66
2022/04/01 07:11:02;;;;;;;0.90;0.90;;;5.50;82.10;;;;;;4963873;28;20081;-66
2022/04/01 07:13:28;;;;;;;0.90;0.75;;;5.50;82.20;;;;;;4979382;28;20571;-67
2022/04/01 07:15:54;;;;;;;1.10;1.00;;;5.50;82.20;;;;;;4966545;28;20050;-66
2022/04/01 07:18:21;;;;;;;0.90;0.90;;;5.50;82.00;;;;;;4973352;28;20156;-66
2022/04/01 07:20:47;;;;;;;0.80;0.80;;;5.50;81.90;;;;;;4959219;28;20490;-67
2022/04/01 07:23:13;;;;;;;0.80;0.80;;;5.50;82.00;;;;;;4966048;28;20050;-66
2022/04/01 07:25:39;;;;;;;0.90;0.70;;;5.40;81.80;;;;;;4979212;28;20031;-66
2022/04/01 07:28:05;;;;;;;0.80;0.80;;;5.50;81.80;;;;;;4977988;28;20034;-66
2022/04/01 07:30:32;;;;;;;0.70;0.70;;;5.40;82.00;;;;;;4977819;28;20691;-66
2022/04/01 07:33:01;;;;;;;0.60;0.60;;;5.40;82.00;;;;;;4959050;28;20549;-67
2022/04/01 07:35:27;;;;;;;0.68;0.52;;;5.40;82.10;;;;;;4967557;28;20029;-66
2022/04/01 07:37:53;;;;;;;2.03;0.60;;;5.40;82.10;;;;;;4978820;28;20043;-66
2022/04/01 07:40:19;;;;;;;0.63;0.52;;;5.40;82.60;;;;;;4978142;28;20034;-66
2022/04/01 07:42:45;;;;;;;0.55;0.55;;;5.40;81.80;;;;;;4975308;28;20034;-66
2022/04/01 07:45:11;;;;;;;0.75;0.50;;;5.40;81.90;;;;;;4959361;28;20061;-66
2022/04/01 07:47:37;;;;;;;0.70;0.60;;;5.30;82.80;;;;;;4969273;28;20027;-66
2022/04/01 07:50:07;;;;;;;0.40;0.40;;;5.30;82.00;;;;;;4978467;28;20129;-66
2022/04/01 07:52:33;;;;;;;0.52;0.52;;;5.30;82.20;;;;;;4962643;28;20117;-67
2022/04/01 07:54:59;;;;;;;0.57;0.57;;;5.30;82.40;;;;;;4962177;28;20091;-66
2022/04/01 07:57:25;;;;;;;0.60;0.60;;;5.30;82.50;;;;;;4976742;28;20031;-66
2022/04/01 07:59:51;;;;;;;0.73;0.65;;;5.30;82.50;;;;;;4966320;28;20030;-66
2022/04/01 08:02:16;;;;;;;0.50;0.50;;;5.30;82.40;;;;;;4955395;28;20544;-66
2022/04/01 08:04:42;;;;;;;0.65;0.50;;;5.30;82.40;;;;;;4978845;28;20100;-66
2022/04/01 08:07:08;;;;;;;0.50;0.50;;;5.30;82.60;;;;;;4971986;28;20478;-65
2022/04/01 08:09:34;;;;;;;0.60;0.50;;;5.30;82.40;;;;;;4960085;28;21196;-66
2022/04/01 08:12:01;;;;;;;0.40;0.40;;;5.30;82.30;;;;;;4958755;28;20038;-67
2022/04/01 08:14:27;;;;;;;0.60;0.60;;;5.30;82.50;;;;;;4976168;28;20031;-66
2022/04/01 08:16:53;;;;;;;0.50;0.50;;;5.30;82.50;;;;;;4988493;28;20204;-66
2022/04/01 08:19:19;;;;;;;2.15;0.50;;;5.30;82.60;;;;;;4965820;28;20027;-66
2022/04/01 08:21:45;;;;;;;0.60;0.60;;;5.30;82.50;;;;;;4968471;28;20557;-66
2022/04/01 08:24:12;;;;;;;0.70;0.70;;;5.30;82.50;;;;;;4971887;28;20041;-65
2022/04/01 08:26:37;;;;;;;1.08;1.00;;;5.30;82.30;;;;;;4977597;28;20023;-66
2022/04/01 08:29:03;;;;;;;1.02;1.00;;;5.30;82.10;;;;;;4970461;28;20709;-66
2022/04/01 08:31:30;;;;;;;1.10;1.00;;;5.30;82.50;;;;;;4967577;28;20023;-67
2022/04/01 08:33:56;;;;;;;1.02;0.70;;;5.30;82.50;;;;;;4963732;28;20038;-66
2022/04/01 08:36:22;;;;;;;0.52;0.52;;;5.30;82.50;;;;;;4974892;28;20046;-66
2022/04/01 08:38:48;;;;;;;0.70;0.70;;;5.30;82.30;;;;;;4975098;28;20142;-66
2022/04/01 08:41:22;;;;;;;0.60;0.60;;;5.30;82.40;;;;;;4959489;28;20039;-66
2022/04/01 08:43:49;;;;;;;0.63;0.63;;;5.30;82.30;;;;;;4969758;28;20050;-66
2022/04/01 08:46:16;;;;;;;0.88;0.88;;;5.30;82.10;;;;;;4978100;28;20061;-66
2022/04/01 08:48:43;;;;;;;0.70;0.60;;;5.30;82.30;;;;;;4975747;28;20080;-66
2022/04/01 08:51:10;;;;;;;0.80;0.80;;;5.30;82.50;;;;;;4972639;28;20035;-66
2022/04/01 08:53:41;;;;;;;0.90;0.73;;;5.30;82.60;;;;;;4960146;28;20026;-66
2022/04/01 08:56:08;;;;;;;0.50;0.50;;;5.30;83.00;;;;;;4972924;28;20034;-66
2022/04/01 08:58:35;;;;;;;1.02;0.45;;;5.20;82.00;;;;;;4975582;28;20034;-66
2022/04/01 09:01:02;;;;;;;0.50;0.50;;;5.20;81.90;;;;;;4959681;28;20177;-66
2022/04/01 09:03:29;;;;;;;1.27;0.77;;;5.20;82.00;;;;;;4967554;28;20074;-66
2022/04/01 09:05:57;;;;;;;0.90;0.80;;;5.10;82.10;;;;;;4979044;28;20031;-67
2022/04/01 09:08:30;;;;;;;0.60;0.60;;;5.10;82.30;;;;;;4964472;28;20066;-67
2022/04/01 09:10:58;;;;;;;0.47;0.40;;;5.10;82.70;;;;;;4976817;28;20042;-66
2022/04/01 09:13:27;;;;;;;0.70;0.70;;;5.00;82.80;;;;;;4978283;28;20034;-67
2022/04/01 09:15:53;;;;;;;0.65;0.65;;;5.00;82.80;;;;;;4965041;28;20043;-66
2022/04/01 09:18:52;;;;;;;0.60;0.60;;;5.00;83.00;;;;;;4962035;28;20041;-66
2022/04/01 09:21:18;;;;;;;0.40;0.40;;;5.00;84.20;;;;;;4946539;28;20110;-66
2022/04/01 09:23:48;;;;;;;0.45;0.45;;;5.00;83.50;;;;;;4966321;28;20494;-67
2022/04/01 09:26:18;;;;;;;0.47;0.47;;;5.00;83.30;;;;;;4957671;28;20668;-65
2022/04/01 09:28:43;;;;;;;0.50;0.50;;;5.00;83.40;;;;;;4965181;28;20154;-66
2022/04/01 09:31:14;;;;;;;0.52;0.50;;;5.00;83.50;;;;;;4980602;28;20536;-67
2022/04/01 09:33:43;;;;;;;0.88;0.47;;;5.00;83.90;;;;;;4981945;28;20034;-66
2022/04/01 09:36:12;;;;;;;0.73;0.40;;;5.00;83.70;;;;;;4980863;28;20066;-66
2022/04/01 09:38:37;;;;;;;0.60;0.60;;;5.00;83.50;;;;;;4979363;28;20042;-66
2022/04/01 09:41:06;;;;;;;0.98;0.43;;;5.00;83.50;;;;;;4962950;28;20066;-67
2022/04/01 09:43:38;;;;;;;0.50;0.50;;;5.00;83.80;;;;;;4970753;28;20039;-67
2022/04/01 09:46:06;;;;;;;0.70;0.50;;;5.00;83.50;;;;;;4980832;28;20290;-66
2022/04/01 09:48:43;;;;;;;0.50;0.50;;;5.00;83.50;;;;;;4979284;28;20390;-66
2022/04/01 09:51:10;;;;;;;0.52;0.50;;;5.00;83.70;;;;;;4982515;28;20066;-66
2022/04/01 09:53:35;;;;;;;0.70;0.60;;;5.00;83.80;;;;;;4979255;28;20039;-66
2022/04/01 09:56:01;;;;;;;0.68;0.57;;;5.00;83.70;;;;;;4978725;28;20042;-67
2022/04/01 09:58:27;;;;;;;0.45;0.43;;;5.00;83.80;;;;;;4977428;28;20034;-66
2022/04/01 10:00:56;;;;;;;0.50;0.50;;;5.00;83.90;;;;;;4964121;28;20069;-65
2022/04/01 10:03:22;;;;;;;2.92;1.45;;;5.00;83.80;;;;;;4967492;28;20044;-66
2022/04/01 10:05:49;;;;;;;13.68;4.75;;;5.00;84.10;;;;;;4980500;28;20503;-66
2022/04/01 10:08:15;;;;;;;1.98;1.05;;;5.00;83.90;;;;;;4967442;28;20410;-66
2022/04/01 10:10:42;;;;;;;1.67;1.00;;;5.00;83.90;;;;;;4961441;28;20478;-66
2022/04/01 10:13:11;;;;;;;0.75;0.70;;;5.00;83.80;;;;;;4962601;28;20086;-66
2022/04/01 10:15:44;;;;;;;0.73;0.70;;;5.10;83.90;;;;;;4971436;28;20042;-67
2022/04/01 10:18:11;;;;;;;0.80;0.70;;;5.00;83.60;;;;;;4981740;28;20419;-66
2022/04/01 10:20:38;;;;;;;1.30;0.75;;;5.00;83.60;;;;;;4964674;28;20036;-66
2022/04/01 10:23:06;;;;;;;1.85;0.85;;;5.00;83.40;;;;;;4973456;28;20047;-66
2022/04/01 10:26:00;;;;;;;0.70;0.70;;;5.00;83.20;;;;;;4958948;28;20035;-66
2022/04/01 10:28:27;;;;;;;0.80;0.80;;;5.00;83.70;;;;;;4968561;28;20058;-66
2022/04/01 10:30:58;;;;;;;0.98;0.82;;;4.90;83.30;;;;;;4978115;28;20458;-66
2022/04/01 10:33:31;;;;;;;3.20;2.90;;;4.90;83.60;;;;;;4991838;28;20097;-66
2022/04/01 10:35:57;;;;;;;1.17;1.08;;;5.00;84.00;;;;;;4965561;28;20074;-66
2022/04/01 10:38:33;;;;;;;1.10;1.00;;;5.00;84.20;;;;;;4976518;28;20046;-66
2022/04/01 10:41:12;;;;;;;1.05;0.98;;;5.00;83.90;;;;;;4993759;28;20410;-65
2022/04/01 10:43:42;;;;;;;0.65;0.65;;;5.00;84.00;;;;;;4971140;28;20046;-66
2022/04/01 10:46:11;;;;;;;0.77;0.70;;;5.00;83.80;;;;;;4960143;28;20067;-66
2022/04/01 10:51:39;;;;;;;0.80;0.80;;;5.00;83.70;;;;;;4971531;28;20663;-66
2022/04/01 10:54:14;;;;;;;0.73;0.73;;;5.00;83.90;;;;;;4972103;28;20042;-66
2022/04/01 10:56:40;;;;;;;1.10;1.00;;;5.00;83.90;;;;;;4976076;28;20089;-65
2022/04/01 10:59:15;;;;;;;0.88;0.88;;;5.00;83.70;;;;;;4965890;28;20804;-66
2022/04/01 11:01:53;;;;;;;1.00;1.00;;;5.10;84.10;;;;;;4980418;28;20506;-67
2022/04/01 11:04:19;;;;;;;1.40;1.30;;;5.10;84.20;;;;;;4963082;28;20450;-66
2022/04/01 11:07:02;;;;;;;1.30;1.20;;;5.00;83.70;;;;;;4960339;28;20082;-66
2022/04/01 11:09:48;;;;;;;1.58;1.00;;;5.10;84.20;;;;;;4961460;28;20564;-66
2022/04/01 11:12:16;;;;;;;;;;;;;;;;;;;;;
2022/04/01 11:14:58;;;;;;;1.25;1.15;;;5.10;83.70;;;;;;4977807;28;20101;-66
2022/04/01 11:17:28;;;;;;;1.40;1.30;;;5.00;83.60;;;;;;4980090;28;20041;-66
2022/04/01 11:20:02;;;;;;;1.05;1.00;;;5.00;83.50;;;;;;4967699;28;20067;-67
2022/04/01 11:22:46;;;;;;;1.13;1.13;;;5.00;83.70;;;;;;4959651;28;20453;-66
2022/04/01 11:25:24;;;;;;;1.30;1.20;;;5.00;83.70;;;;;;4978817;28;20125;-67
2022/04/01 11:28:23;;;;;;;1.95;1.70;;;4.90;83.50;;;;;;4979359;28;20274;-66
2022/04/01 11:30:51;;;;;;;1.40;1.05;;;4.90;83.90;;;;;;4977653;28;20532;-66
2022/04/01 11:33:19;;;;;;;1.45;1.35;;;4.90;83.80;;;;;;4979193;28;20073;-66
2022/04/01 11:35:55;;;;;;;1.30;1.20;;;4.90;83.80;;;;;;4977618;28;20137;-66
2022/04/01 11:38:24;;;;;;;1.67;1.58;;;4.90;84.30;;;;;;4977317;28;20068;-65
2022/04/01 11:40:54;;;;;;;1.30;1.20;;;4.90;84.00;;;;;;4977225;28;20043;-66
2022/04/01 11:43:21;;;;;;;10.38;8.25;;;4.90;83.70;;;;;;4978572;28;20038;-65
2022/04/01 11:45:51;;;;;;;1.80;1.67;;;4.90;83.80;;;;;;4966807;28;20051;-66
2022/04/01 11:48:28;;;;;;;1.30;1.20;;;4.90;83.80;;;;;;4959182;28;20046;-67
2022/04/01 11:50:59;;;;;;;1.02;1.02;;;4.90;83.90;;;;;;4978152;28;20047;-65
2022/04/01 11:53:30;;;;;;;1.35;1.25;;;4.90;83.70;;;;;;4977757;28;20589;-66
2022/04/01 11:55:56;;;;;;;1.90;1.65;;;4.90;83.70;;;;;;4978191;28;20034;-66
2022/04/01 11:58:23;;;;;;;1.40;1.20;;;4.90;83.90;;;;;;4976774;28;20046;-66
2022/04/01 12:00:50;;;;;;;2.40;1.70;;;5.00;84.10;;;;;;4979118;28;20494;-66
2022/04/01 12:03:18;;;;;;;0.70;0.70;;;5.00;83.70;;;;;;4977491;28;20039;-66
2022/04/01 12:05:44;;;;;;;1.00;0.80;;;5.00;83.30;;;;;;4977106;28;20070;-66
2022/04/01 12:10:59;;;;;;;1.17;0.82;;;5.00;82.80;;;;;;4960699;28;20057;-66
2022/04/01 12:13:27;;;;;;;0.63;0.63;;;5.00;83.00;;;;;;4981642;28;20034;-66
2022/04/01 12:15:54;;;;;;;0.68;0.68;;;5.00;83.20;;;;;;4978887;28;20073;-66
2022/04/01 12:18:22;;;;;;;0.80;0.80;;;4.90;83.00;;;;;;4978536;28;20073;-66
2022/04/01 12:20:52;;;;;;;1.20;1.10;;;4.90;82.90;;;;;;4976469;28;20060;-67
2022/04/01 12:23:21;;;;;;;1.45;1.30;;;4.90;83.40;;;;;;4970371;28;20047;-66
2022/04/01 12:25:49;;;;;;;1.90;1.80;;;4.90;84.10;;;;;;4959332;28;20034;-67
2022/04/01 12:28:18;;;;;;;1.80;1.70;;;5.00;84.60;;;;;;4973980;28;20030;-66
2022/04/01 12:30:47;;;;;;;1.75;1.50;;;5.00;84.80;;;;;;4980931;28;20050;-66
2022/04/01 12:33:15;;;;;;;1.30;1.20;;;5.00;84.60;;;;;;4976833;28;20030;-66
2022/04/01 12:36:07;;;;;;;0.90;0.90;;;5.10;84.40;;;;;;4968722;28;20126;-66
2022/04/01 12:38:38;;;;;;;2.92;1.20;;;5.20;84.40;;;;;;4971764;28;20042;-66
2022/04/01 12:41:07;;;;;;;1.38;1.27;;;5.20;83.70;;;;;;4960736;28;20031;-66
2022/04/01 12:43:45;;;;;;;1.25;1.08;;;5.20;83.50;;;;;;4968325;28;20539;-65
2022/04/01 12:46:17;;;;;;;1.10;1.10;;;5.20;83.70;;;;;;4977670;28;20034;-67
2022/04/01 12:48:55;;;;;;;0.60;0.60;;;5.20;83.40;;;;;;4961681;28;22126;-66
2022/04/01 12:51:21;;;;;;;0.88;0.85;;;5.20;82.60;;;;;;4969508;28;20075;-67
2022/04/01 12:54:04;;;;;;;1.02;0.95;;;5.20;82.10;;;;;;4959781;28;20453;-67
2022/04/01 12:56:35;;;;;;;0.80;0.80;;;5.20;82.50;;;;;;4974866;28;20035;-67
2022/04/01 12:59:07;;;;;;;0.75;0.75;;;5.10;82.50;;;;;;4971982;28;20559;-66
2022/04/01 13:01:35;;;;;;;0.70;0.70;;;5.10;82.70;;;;;;4959848;28;20053;-66
2022/04/01 13:04:01;;;;;;;1.00;0.90;;;5.20;83.00;;;;;;4974837;28;20034;-66
2022/04/01 13:06:28;;;;;;;0.77;0.77;;;5.10;82.80;;;;;;4980719;28;20185;-67
2022/04/01 13:09:00;;;;;;;1.08;1.00;;;5.10;83.10;;;;;;4968453;28;20120;-66
2022/04/01 13:11:46;;;;;;;0.75;0.75;;;5.20;83.50;;;;;;4980725;28;20046;-66
2022/04/01 13:14:22;;;;;;;0.60;0.60;;;5.20;82.90;;;;;;4983368;28;21271;-66
2022/04/01 13:16:49;;;;;;;1.00;0.90;;;5.30;82.80;;;;;;4981861;28;20042;-66
2022/04/01 13:19:19;;;;;;;0.80;0.80;;;5.20;82.70;;;;;;4981817;28;20038;-66
2022/04/01 13:21:45;;;;;;;0.80;0.80;;;5.20;82.80;;;;;;4980700;28;20076;-66